sensor_id;sensor_type;location;lat;lon;timestamp;pressure;altitude;pressure_sealevel;temperature;humidity
74103;BME280;62853;46.166;3.640;2024-01-07T00:01:00;101546.38;;;5.87;100.00
74103;BME280;62853;46.166;3.640;2024-01-07T00:03:26;101550.75;;;5.86;100.00
74103;BME280;62853;46.166;3.640;2024-01-07T00:05:51;101549.03;;;5.85;100.00
74103;BME280;62853;46.166;3.640;2024-01-07T00:08:16;101548.16;;;5.85;100.00
74103;BME280;62853;46.166;3.640;2024-01-07T00:10:42;101552.53;;;5.84;100.00
74103;BME280;62853;46.166;3.640;2024-01-07T00:13:07;101552.53;;;5.84;100.00
74103;BME280;62853;46.166;3.640;2024-01-07T00:15:32;101553.38;;;5.85;100.00
74103;BME280;62853;46.166;3.640;2024-01-07T00:17:58;101555.16;;;5.84;100.00
74103;BME280;62853;46.166;3.640;2024-01-07T00:20:23;101563.88;;;5.83;100.00
74103;BME280;62853;46.166;3.640;2024-01-07T00:22:48;101562.19;;;5.82;100.00
74103;BME280;62853;46.166;3.640;2024-01-07T00:25:14;101558.69;;;5.82;100.00
74103;BME280;62853;46.166;3.640;2024-01-07T00:27:39;101570.91;;;5.81;100.00
74103;BME280;62853;46.166;3.640;2024-01-07T00:30:05;101563.06;;;5.81;100.00
74103;BME280;62853;46.166;3.640;2024-01-07T00:32:31;101565.69;;;5.81;100.00
74103;BME280;62853;46.166;3.640;2024-01-07T00:34:56;101571.78;;;5.80;100.00
74103;BME280;62853;46.166;3.640;2024-01-07T00:37:21;101574.41;;;5.80;100.00
74103;BME280;62853;46.166;3.640;2024-01-07T00:39:47;101578.78;;;5.80;100.00
74103;BME280;62853;46.166;3.640;2024-01-07T00:42:12;101579.69;;;5.78;100.00
74103;BME280;62853;46.166;3.640;2024-01-07T00:44:37;101584.06;;;5.76;100.00
74103;BME280;62853;46.166;3.640;2024-01-07T00:47:03;101579.72;;;5.77;100.00
74103;BME280;62853;46.166;3.640;2024-01-07T00:49:28;101582.34;;;5.77;100.00
74103;BME280;62853;46.166;3.640;2024-01-07T00:51:53;101583.22;;;5.76;100.00
74103;BME280;62853;46.166;3.640;2024-01-07T00:54:19;101586.72;;;5.75;100.00
74103;BME280;62853;46.166;3.640;2024-01-07T00:56:45;101596.31;;;5.74;100.00
74103;BME280;62853;46.166;3.640;2024-01-07T00:59:10;101593.75;;;5.73;100.00
74103;BME280;62853;46.166;3.640;2024-01-07T01:01:37;101597.28;;;5.72;100.00
74103;BME280;62853;46.166;3.640;2024-01-07T01:04:02;101601.59;;;5.73;100.00
74103;BME280;62853;46.166;3.640;2024-01-07T01:06:28;101598.97;;;5.73;100.00
74103;BME280;62853;46.166;3.640;2024-01-07T01:08:53;101603.34;;;5.72;100.00
74103;BME280;62853;46.166;3.640;2024-01-07T01:11:18;101604.22;;;5.71;100.00
74103;BME280;62853;46.166;3.640;2024-01-07T01:13:44;101612.09;;;5.70;100.00
74103;BME280;62853;46.166;3.640;2024-01-07T01:16:09;101606.88;;;5.70;100.00
74103;BME280;62853;46.166;3.640;2024-01-07T01:18:35;101607.75;;;5.70;100.00
74103;BME280;62853;46.166;3.640;2024-01-07T01:21:00;101613.84;;;5.71;100.00
74103;BME280;62853;46.166;3.640;2024-01-07T01:23:25;101616.47;;;5.69;100.00
74103;BME280;62853;46.166;3.640;2024-01-07T01:25:51;101620.84;;;5.69;100.00
74103;BME280;62853;46.166;3.640;2024-01-07T01:28:16;101613.91;;;5.68;100.00
74103;BME280;62853;46.166;3.640;2024-01-07T01:30:41;101620.84;;;5.69;100.00
74103;BME280;62853;46.166;3.640;2024-01-07T01:33:07;101620.84;;;5.69;100.00
74103;BME280;62853;46.166;3.640;2024-01-07T01:35:32;101623.50;;;5.67;100.00
74103;BME280;62853;46.166;3.640;2024-01-07T01:37:58;101627.88;;;5.67;100.00
74103;BME280;62853;46.166;3.640;2024-01-07T01:40:23;101631.38;;;5.66;100.00
74103;BME280;62853;46.166;3.640;2024-01-07T01:42:48;101639.22;;;5.66;100.00
74103;BME280;62853;46.166;3.640;2024-01-07T01:45:14;101631.38;;;5.66;100.00
74103;BME280;62853;46.166;3.640;2024-01-07T01:47:40;101636.63;;;5.64;100.00
74103;BME280;62853;46.166;3.640;2024-01-07T01:50:07;101631.41;;;5.64;100.00
74103;BME280;62853;46.166;3.640;2024-01-07T01:52:32;101641.88;;;5.63;100.00
74103;BME280;62853;46.166;3.640;2024-01-07T01:54:59;101640.13;;;5.63;100.00
74103;BME280;62853;46.166;3.640;2024-01-07T01:57:31;101644.50;;;5.63;100.00
74103;BME280;62853;46.166;3.640;2024-01-07T01:59:57;101653.19;;;5.63;100.00
74103;BME280;62853;46.166;3.640;2024-01-07T02:02:27;101653.25;;;5.62;100.00
74103;BME280;62853;46.166;3.640;2024-01-07T02:04:54;101648.91;;;5.61;100.00
74103;BME280;62853;46.166;3.640;2024-01-07T02:07:19;101655.00;;;5.59;100.00
74103;BME280;62853;46.166;3.640;2024-01-07T02:09:44;101654.16;;;5.59;100.00
74103;BME280;62853;46.166;3.640;2024-01-07T02:12:10;101656.78;;;5.59;100.00
74103;BME280;62853;46.166;3.640;2024-01-07T02:14:37;101662.00;;;5.59;100.00
74103;BME280;62853;46.166;3.640;2024-01-07T02:17:03;101655.91;;;5.58;100.00
74103;BME280;62853;46.166;3.640;2024-01-07T02:19:28;101663.75;;;5.58;100.00
74103;BME280;62853;46.166;3.640;2024-01-07T02:21:53;101664.63;;;5.57;100.00
74103;BME280;62853;46.166;3.640;2024-01-07T02:24:19;101657.69;;;5.56;100.00
74103;BME280;62853;46.166;3.640;2024-01-07T02:26:44;101664.63;;;5.57;100.00
74103;BME280;62853;46.166;3.640;2024-01-07T02:29:10;101668.13;;;5.56;100.00
74103;BME280;62853;46.166;3.640;2024-01-07T02:31:35;101667.31;;;5.54;100.00
74103;BME280;62853;46.166;3.640;2024-01-07T02:34:00;101667.31;;;5.54;100.00
74103;BME280;62853;46.166;3.640;2024-01-07T02:36:26;101671.66;;;5.55;100.00
74103;BME280;62853;46.166;3.640;2024-01-07T02:38:51;101667.31;;;5.54;100.00
74103;BME280;62853;46.166;3.640;2024-01-07T02:41:17;101673.44;;;5.53;100.00
74103;BME280;62853;46.166;3.640;2024-01-07T02:43:42;101669.97;;;5.51;100.00
74103;BME280;62853;46.166;3.640;2024-01-07T02:46:08;101666.53;;;5.51;100.00
74103;BME280;62853;46.166;3.640;2024-01-07T02:48:33;101673.50;;;5.50;100.00
74103;BME280;62853;46.166;3.640;2024-01-07T02:50:59;101675.28;;;5.50;100.00
74103;BME280;62853;46.166;3.640;2024-01-07T02:53:24;101674.38;;;5.49;100.00
74103;BME280;62853;46.166;3.640;2024-01-07T02:55:49;101679.59;;;5.49;100.00
74103;BME280;62853;46.166;3.640;2024-01-07T02:58:15;101677.88;;;5.50;100.00
74103;BME280;62853;46.166;3.640;2024-01-07T03:00:41;101678.72;;;5.50;100.00
74103;BME280;62853;46.166;3.640;2024-01-07T03:03:06;101678.75;;;5.49;100.00
74103;BME280;62853;46.166;3.640;2024-01-07T03:05:31;101685.75;;;5.48;100.00
74103;BME280;62853;46.166;3.640;2024-01-07T03:07:58;101686.63;;;5.47;100.00
74103;BME280;62853;46.166;3.640;2024-01-07T03:10:25;101693.63;;;5.47;100.00
74103;BME280;62853;46.166;3.640;2024-01-07T03:12:50;101690.09;;;5.48;100.00
74103;BME280;62853;46.166;3.640;2024-01-07T03:15:16;101690.13;;;5.46;100.00
74103;BME280;62853;46.166;3.640;2024-01-07T03:17:41;101696.25;;;5.45;100.00
74103;BME280;62853;46.166;3.640;2024-01-07T03:20:07;101698.88;;;5.45;100.00
74103;BME280;62853;46.166;3.640;2024-01-07T03:22:33;101702.34;;;5.46;100.00
74103;BME280;62853;46.166;3.640;2024-01-07T03:24:58;101712.78;;;5.46;100.00
74103;BME280;62853;46.166;3.640;2024-01-07T03:27:23;101711.94;;;5.45;100.00
74103;BME280;62853;46.166;3.640;2024-01-07T03:29:48;101704.94;;;5.46;100.00
74103;BME280;62853;46.166;3.640;2024-01-07T03:32:14;101703.22;;;5.45;100.00
74103;BME280;62853;46.166;3.640;2024-01-07T03:34:39;101711.03;;;5.45;100.00
74103;BME280;62853;46.166;3.640;2024-01-07T03:37:05;101706.72;;;5.44;100.00
74103;BME280;62853;46.166;3.640;2024-01-07T03:39:34;101704.97;;;5.44;100.00
74103;BME280;62853;46.166;3.640;2024-01-07T03:41:59;101710.19;;;5.44;100.00
74103;BME280;62853;46.166;3.640;2024-01-07T03:44:24;101712.81;;;5.44;100.00
74103;BME280;62853;46.166;3.640;2024-01-07T03:46:50;101708.50;;;5.43;100.00
74103;BME280;62853;46.166;3.640;2024-01-07T03:49:16;101707.59;;;5.43;100.00
74103;BME280;62853;46.166;3.640;2024-01-07T03:51:43;101705.91;;;5.42;100.00
74103;BME280;62853;46.166;3.640;2024-01-07T03:54:08;101707.63;;;5.41;100.00
74103;BME280;62853;46.166;3.640;2024-01-07T03:56:34;101714.59;;;5.42;100.00
74103;BME280;62853;46.166;3.640;2024-01-07T03:58:59;101723.31;;;5.41;100.00
74103;BME280;62853;46.166;3.640;2024-01-07T04:01:24;101728.53;;;5.41;100.00
74103;BME280;62853;46.166;3.640;2024-01-07T04:03:50;101732.06;;;5.40;100.00
74103;BME280;62853;46.166;3.640;2024-01-07T04:06:15;101732.88;;;5.42;100.00
74103;BME280;62853;46.166;3.640;2024-01-07T04:08:41;101729.44;;;5.40;100.00
74103;BME280;62853;46.166;3.640;2024-01-07T04:11:06;101731.19;;;5.39;100.00
74103;BME280;62853;46.166;3.640;2024-01-07T04:13:32;101730.31;;;5.39;100.00
74103;BME280;62853;46.166;3.640;2024-01-07T04:15:57;101732.06;;;5.40;100.00
74103;BME280;62853;46.166;3.640;2024-01-07T04:18:22;101735.56;;;5.39;100.00
74103;BME280;62853;46.166;3.640;2024-01-07T04:20:48;101739.91;;;5.38;100.00
74103;BME280;62853;46.166;3.640;2024-01-07T04:23:13;101744.28;;;5.38;100.00
74103;BME280;62853;46.166;3.640;2024-01-07T04:25:39;101746.00;;;5.39;100.00
74103;BME280;62853;46.166;3.640;2024-01-07T04:28:06;101749.47;;;5.39;100.00
74103;BME280;62853;46.166;3.640;2024-01-07T04:30:31;101754.69;;;5.39;100.00
74103;BME280;62853;46.166;3.640;2024-01-07T04:32:57;101752.97;;;5.38;100.00
74103;BME280;62853;46.166;3.640;2024-01-07T04:35:22;101763.44;;;5.38;100.00
74103;BME280;62853;46.166;3.640;2024-01-07T04:37:47;101758.19;;;5.40;100.00
74103;BME280;62853;46.166;3.640;2024-01-07T04:40:13;101761.69;;;5.37;100.00
74103;BME280;62853;46.166;3.640;2024-01-07T04:42:39;101761.72;;;5.36;100.00
74103;BME280;62853;46.166;3.640;2024-01-07T04:45:04;101755.63;;;5.37;100.00
74103;BME280;62853;46.166;3.640;2024-01-07T04:47:31;101762.59;;;5.36;100.00
74103;BME280;62853;46.166;3.640;2024-01-07T04:49:57;101768.72;;;5.35;100.00
74103;BME280;62853;46.166;3.640;2024-01-07T04:52:23;101779.16;;;5.35;100.00
74103;BME280;62853;46.166;3.640;2024-01-07T04:54:53;101776.56;;;5.34;100.00
74103;BME280;62853;46.166;3.640;2024-01-07T04:57:19;101783.59;;;5.32;100.00
74103;BME280;62853;46.166;3.640;2024-01-07T04:59:45;101782.72;;;5.31;100.00
74103;BME280;62853;46.166;3.640;2024-01-07T05:02:10;101786.22;;;5.30;100.00
74103;BME280;62853;46.166;3.640;2024-01-07T05:04:36;101787.97;;;5.30;100.00
74103;BME280;62853;46.166;3.640;2024-01-07T05:07:02;101784.47;;;5.29;100.00
74103;BME280;62853;46.166;3.640;2024-01-07T05:09:27;101781.88;;;5.29;100.00
74103;BME280;62853;46.166;3.640;2024-01-07T05:11:53;101782.78;;;5.28;100.00
74103;BME280;62853;46.166;3.640;2024-01-07T05:14:18;101784.50;;;5.28;100.00
74103;BME280;62853;46.166;3.640;2024-01-07T05:16:44;101786.25;;;5.27;100.00
74103;BME280;62853;46.166;3.640;2024-01-07T05:19:09;101781.06;;;5.26;100.00
74103;BME280;62853;46.166;3.640;2024-01-07T05:21:34;101787.19;;;5.26;100.00
74103;BME280;62853;46.166;3.640;2024-01-07T05:24:00;101800.22;;;5.26;100.00
74103;BME280;62853;46.166;3.640;2024-01-07T05:26:25;101795.88;;;5.27;100.00
74103;BME280;62853;46.166;3.640;2024-01-07T05:28:50;101805.47;;;5.26;100.00
74103;BME280;62853;46.166;3.640;2024-01-07T05:31:19;101803.72;;;5.25;100.00
74103;BME280;62853;46.166;3.640;2024-01-07T05:33:45;101811.53;;;5.27;100.00
74103;BME280;62853;46.166;3.640;2024-01-07T05:36:14;101817.59;;;5.27;100.00
74103;BME280;62853;46.166;3.640;2024-01-07T05:38:42;101826.34;;;5.26;100.00
74103;BME280;62853;46.166;3.640;2024-01-07T05:41:08;101830.69;;;5.26;100.00
74103;BME280;62853;46.166;3.640;2024-01-07T05:43:35;101832.44;;;5.25;100.00
74103;BME280;62853;46.166;3.640;2024-01-07T05:46:01;101831.56;;;5.26;100.00
74103;BME280;62853;46.166;3.640;2024-01-07T05:48:26;101829.00;;;5.25;100.00
74103;BME280;62853;46.166;3.640;2024-01-07T05:50:51;101838.53;;;5.26;100.00
74103;BME280;62853;46.166;3.640;2024-01-07T05:53:17;101841.19;;;5.22;100.00
74103;BME280;62853;46.166;3.640;2024-01-07T05:55:42;101841.19;;;5.22;100.00
74103;BME280;62853;46.166;3.640;2024-01-07T05:58:08;101835.97;;;5.21;100.00
74103;BME280;62853;46.166;3.640;2024-01-07T06:00:33;101840.34;;;5.20;100.00
74103;BME280;62853;46.166;3.640;2024-01-07T06:02:59;101842.97;;;5.20;100.00
74103;BME280;62853;46.166;3.640;2024-01-07T06:05:24;101850.81;;;5.20;100.00
74103;BME280;62853;46.166;3.640;2024-01-07T06:07:49;101853.44;;;5.19;100.00
74103;BME280;62853;46.166;3.640;2024-01-07T06:10:15;101857.81;;;5.18;100.00
74103;BME280;62853;46.166;3.640;2024-01-07T06:12:40;101856.94;;;5.18;100.00
74103;BME280;62853;46.166;3.640;2024-01-07T06:15:06;101861.28;;;5.17;100.00
74103;BME280;62853;46.166;3.640;2024-01-07T06:17:31;101868.25;;;5.18;100.00
74103;BME280;62853;46.166;3.640;2024-01-07T06:19:57;101870.00;;;5.18;100.00
74103;BME280;62853;46.166;3.640;2024-01-07T06:22:22;101872.66;;;5.16;100.00
74103;BME280;62853;46.166;3.640;2024-01-07T06:24:48;101875.25;;;5.16;100.00
74103;BME280;62853;46.166;3.640;2024-01-07T06:27:13;101877.88;;;5.16;100.00
74103;BME280;62853;46.166;3.640;2024-01-07T06:29:39;101883.09;;;5.16;100.00
74103;BME280;62853;46.166;3.640;2024-01-07T06:32:04;101886.56;;;5.17;100.00
74103;BME280;62853;46.166;3.640;2024-01-07T06:34:30;101893.53;;;5.16;100.00
74103;BME280;62853;46.166;3.640;2024-01-07T06:36:55;101893.53;;;5.16;100.00
74103;BME280;62853;46.166;3.640;2024-01-07T06:39:20;101902.25;;;5.15;100.00
74103;BME280;62853;46.166;3.640;2024-01-07T06:41:46;101907.47;;;5.15;100.00
74103;BME280;62853;46.166;3.640;2024-01-07T06:44:11;101901.38;;;5.15;100.00
74103;BME280;62853;46.166;3.640;2024-01-07T06:46:37;101911.00;;;5.13;100.00
74103;BME280;62853;46.166;3.640;2024-01-07T06:49:02;101921.44;;;5.13;100.00
74103;BME280;62853;46.166;3.640;2024-01-07T06:51:28;101914.47;;;5.13;100.00
74103;BME280;62853;46.166;3.640;2024-01-07T06:53:53;101924.91;;;5.13;100.00
74103;BME280;62853;46.166;3.640;2024-01-07T06:56:18;101928.41;;;5.12;100.00
74103;BME280;62853;46.166;3.640;2024-01-07T06:58:44;101931.91;;;5.11;100.00
74103;BME280;62853;46.166;3.640;2024-01-07T07:01:10;101940.59;;;5.12;100.00
74103;BME280;62853;46.166;3.640;2024-01-07T07:03:36;101941.47;;;5.11;100.00
74103;BME280;62853;46.166;3.640;2024-01-07T07:06:02;101935.41;;;5.09;100.00
74103;BME280;62853;46.166;3.640;2024-01-07T07:08:27;101946.69;;;5.11;100.00
74103;BME280;62853;46.166;3.640;2024-01-07T07:10:53;101944.09;;;5.09;100.00
74103;BME280;62853;46.166;3.640;2024-01-07T07:13:18;101947.63;;;5.08;100.00
74103;BME280;62853;46.166;3.640;2024-01-07T07:15:43;101948.50;;;5.07;100.00
74103;BME280;62853;46.166;3.640;2024-01-07T07:18:09;101950.25;;;5.07;100.00
74103;BME280;62853;46.166;3.640;2024-01-07T07:20:34;101950.25;;;5.07;100.00
74103;BME280;62853;46.166;3.640;2024-01-07T07:22:59;101953.72;;;5.06;100.00
74103;BME280;62853;46.166;3.640;2024-01-07T07:25:25;101957.22;;;5.06;100.00
74103;BME280;62853;46.166;3.640;2024-01-07T07:27:50;101965.91;;;5.07;100.00
74103;BME280;62853;46.166;3.640;2024-01-07T07:30:15;101965.06;;;5.06;100.00
74103;BME280;62853;46.166;3.640;2024-01-07T07:32:41;101984.22;;;5.05;100.00
74103;BME280;62853;46.166;3.640;2024-01-07T07:35:07;101974.66;;;5.04;100.00
74103;BME280;62853;46.166;3.640;2024-01-07T07:37:33;101987.69;;;5.04;100.00
74103;BME280;62853;46.166;3.640;2024-01-07T07:39:58;101991.19;;;5.05;100.00
74103;BME280;62853;46.166;3.640;2024-01-07T07:42:23;101996.41;;;5.05;100.00
74103;BME280;62853;46.166;3.640;2024-01-07T07:44:49;101992.06;;;5.03;100.00
74103;BME280;62853;46.166;3.640;2024-01-07T07:47:14;101999.91;;;5.03;100.00
74103;BME280;62853;46.166;3.640;2024-01-07T07:49:39;102011.22;;;5.02;100.00
74103;BME280;62853;46.166;3.640;2024-01-07T07:52:07;102010.38;;;5.02;100.00
74103;BME280;62853;46.166;3.640;2024-01-07T07:54:33;102018.19;;;5.02;100.00
74103;BME280;62853;46.166;3.640;2024-01-07T07:56:59;102025.16;;;5.01;100.00
74103;BME280;62853;46.166;3.640;2024-01-07T07:59:24;102025.16;;;5.01;100.00
74103;BME280;62853;46.166;3.640;2024-01-07T08:01:49;102026.94;;;5.01;100.00
74103;BME280;62853;46.166;3.640;2024-01-07T08:04:15;102031.25;;;5.00;100.00
74103;BME280;62853;46.166;3.640;2024-01-07T08:06:40;102033.03;;;4.98;100.00
74103;BME280;62853;46.166;3.640;2024-01-07T08:09:08;102033.06;;;4.97;100.00
74103;BME280;62853;46.166;3.640;2024-01-07T08:11:33;102031.34;;;4.96;100.00
74103;BME280;62853;46.166;3.640;2024-01-07T08:13:59;102042.63;;;4.96;100.00
74103;BME280;62853;46.166;3.640;2024-01-07T08:16:26;102034.81;;;4.95;100.00
74103;BME280;62853;46.166;3.640;2024-01-07T08:18:51;102048.72;;;4.95;100.00
74103;BME280;62853;46.166;3.640;2024-01-07T08:21:17;102040.06;;;4.95;100.00
74103;BME280;62853;46.166;3.640;2024-01-07T08:23:42;102041.78;;;4.96;100.00
74103;BME280;62853;46.166;3.640;2024-01-07T08:26:08;102040.91;;;4.95;100.00
74103;BME280;62853;46.166;3.640;2024-01-07T08:28:33;102050.50;;;4.95;100.00
74103;BME280;62853;46.166;3.640;2024-01-07T08:30:58;102053.97;;;4.94;100.00
74103;BME280;62853;46.166;3.640;2024-01-07T08:33:24;102058.34;;;4.93;100.00
74103;BME280;62853;46.166;3.640;2024-01-07T08:35:49;102063.56;;;4.93;100.00
74103;BME280;62853;46.166;3.640;2024-01-07T08:38:15;102064.41;;;4.94;100.00
74103;BME280;62853;46.166;3.640;2024-01-07T08:40:40;102068.78;;;4.93;100.00
74103;BME280;62853;46.166;3.640;2024-01-07T08:43:05;102070.56;;;4.91;100.00
74103;BME280;62853;46.166;3.640;2024-01-07T08:45:31;102078.38;;;4.93;100.00
74103;BME280;62853;46.166;3.640;2024-01-07T08:47:56;102074.88;;;4.91;100.00
74103;BME280;62853;46.166;3.640;2024-01-07T08:50:22;102074.03;;;4.90;100.00
74103;BME280;62853;46.166;3.640;2024-01-07T08:52:47;102084.47;;;4.90;100.00
74103;BME280;62853;46.166;3.640;2024-01-07T08:55:12;102083.59;;;4.91;100.00
74103;BME280;62853;46.166;3.640;2024-01-07T08:57:38;102085.31;;;4.92;100.00
74103;BME280;62853;46.166;3.640;2024-01-07T09:00:05;102094.03;;;4.91;100.00
74103;BME280;62853;46.166;3.640;2024-01-07T09:02:32;102096.66;;;4.93;100.00
74103;BME280;62853;46.166;3.640;2024-01-07T09:04:58;102099.28;;;4.91;100.00
74103;BME280;62853;46.166;3.640;2024-01-07T09:07:23;102106.22;;;4.91;100.00
74103;BME280;62853;46.166;3.640;2024-01-07T09:09:48;102104.50;;;4.90;100.00
74103;BME280;62853;46.166;3.640;2024-01-07T09:12:14;102111.44;;;4.91;100.00
74103;BME280;62853;46.166;3.640;2024-01-07T09:14:39;102107.13;;;4.90;100.00
74103;BME280;62853;46.166;3.640;2024-01-07T09:17:05;102112.34;;;4.90;100.00
74103;BME280;62853;46.166;3.640;2024-01-07T09:19:30;102114.09;;;4.89;100.00
74103;BME280;62853;46.166;3.640;2024-01-07T09:21:56;102126.25;;;4.90;100.00
74103;BME280;62853;46.166;3.640;2024-01-07T09:24:21;102121.03;;;4.90;100.00
74103;BME280;62853;46.166;3.640;2024-01-07T09:26:46;102130.59;;;4.91;100.00
74103;BME280;62853;46.166;3.640;2024-01-07T09:29:12;102141.91;;;4.92;100.00
74103;BME280;62853;46.166;3.640;2024-01-07T09:31:37;102137.53;;;4.92;100.00
74103;BME280;62853;46.166;3.640;2024-01-07T09:34:02;102139.28;;;4.93;100.00
74103;BME280;62853;46.166;3.640;2024-01-07T09:36:29;102154.09;;;4.93;100.00
74103;BME280;62853;46.166;3.640;2024-01-07T09:38:54;102148.84;;;4.93;100.00
74103;BME280;62853;46.166;3.640;2024-01-07T09:41:20;102154.94;;;4.92;100.00
74103;BME280;62853;46.166;3.640;2024-01-07T09:43:45;102158.41;;;4.92;100.00
74103;BME280;62853;46.166;3.640;2024-01-07T09:46:10;102161.91;;;4.93;100.00
74103;BME280;62853;46.166;3.640;2024-01-07T09:48:36;102164.53;;;4.93;100.00
74103;BME280;62853;46.166;3.640;2024-01-07T09:51:03;102168.84;;;4.92;100.00
74103;BME280;62853;46.166;3.640;2024-01-07T09:53:31;102171.47;;;4.92;100.00
74103;BME280;62853;46.166;3.640;2024-01-07T09:56:19;102168.84;;;4.94;100.00
74103;BME280;62853;46.166;3.640;2024-01-07T09:58:45;102170.59;;;4.93;100.00
74103;BME280;62853;46.166;3.640;2024-01-07T10:01:15;102174.97;;;4.94;100.00
74103;BME280;62853;46.166;3.640;2024-01-07T10:03:41;102174.97;;;4.94;100.00
74103;BME280;62853;46.166;3.640;2024-01-07T10:06:06;102174.06;;;4.95;100.00
74103;BME280;62853;46.166;3.640;2024-01-07T10:08:32;102188.88;;;4.95;100.00
74103;BME280;62853;46.166;3.640;2024-01-07T10:10:57;102188.00;;;4.96;100.00
74103;BME280;62853;46.166;3.640;2024-01-07T10:13:23;102195.84;;;4.96;100.00
74103;BME280;62853;46.166;3.640;2024-01-07T10:15:48;102201.00;;;4.97;100.00
74103;BME280;62853;46.166;3.640;2024-01-07T10:18:14;102201.00;;;4.97;100.00
74103;BME280;62853;46.166;3.640;2024-01-07T10:20:39;102190.56;;;4.97;100.00
74103;BME280;62853;46.166;3.640;2024-01-07T10:23:05;102201.00;;;4.97;100.00
74103;BME280;62853;46.166;3.640;2024-01-07T10:25:31;102201.91;;;4.98;100.00
74103;BME280;62853;46.166;3.640;2024-01-07T10:28:02;102207.97;;;4.98;100.00
74103;BME280;62853;46.166;3.640;2024-01-07T10:30:31;102209.72;;;4.98;100.00
74103;BME280;62853;46.166;3.640;2024-01-07T10:32:57;102207.13;;;4.98;100.00
74103;BME280;62853;46.166;3.640;2024-01-07T10:35:33;102207.97;;;4.97;100.00
74103;BME280;62853;46.166;3.640;2024-01-07T10:38:00;102214.03;;;4.99;100.00
74103;BME280;62853;46.166;3.640;2024-01-07T10:40:27;102204.50;;;4.98;100.00
74103;BME280;62853;46.166;3.640;2024-01-07T10:42:54;102212.34;;;4.98;100.00
74103;BME280;62853;46.166;3.640;2024-01-07T10:45:20;102208.81;;;4.99;100.00
74103;BME280;62853;46.166;3.640;2024-01-07T10:47:48;102209.72;;;4.98;100.00
74103;BME280;62853;46.166;3.640;2024-01-07T10:50:16;102217.53;;;5.01;100.00
74103;BME280;62853;46.166;3.640;2024-01-07T10:52:42;102216.66;;;5.00;100.00
74103;BME280;62853;46.166;3.640;2024-01-07T10:55:09;102214.94;;;5.01;100.00
74103;BME280;62853;46.166;3.640;2024-01-07T10:57:44;102215.78;;;5.03;100.00
74103;BME280;62853;46.166;3.640;2024-01-07T11:00:13;102218.41;;;5.01;100.00
74103;BME280;62853;46.166;3.640;2024-01-07T11:08:13;102218.41;;;5.01;100.00
74103;BME280;62853;46.166;3.640;2024-01-07T11:10:50;102213.19;;;5.00;100.00
74103;BME280;62853;46.166;3.640;2024-01-07T11:13:35;102220.16;;;5.01;100.00
74103;BME280;62853;46.166;3.640;2024-01-07T11:16:02;102222.75;;;5.01;100.00
74103;BME280;62853;46.166;3.640;2024-01-07T11:18:27;102224.47;;;5.02;100.00
74103;BME280;62853;46.166;3.640;2024-01-07T11:21:00;102218.38;;;5.03;100.00
74103;BME280;62853;46.166;3.640;2024-01-07T11:23:29;102221.84;;;5.03;100.00
74103;BME280;62853;46.166;3.640;2024-01-07T11:26:01;102226.19;;;5.05;100.00
74103;BME280;62853;46.166;3.640;2024-01-07T11:28:46;102224.44;;;5.05;100.00
74103;BME280;62853;46.166;3.640;2024-01-07T11:31:12;102230.50;;;5.07;100.00
74103;BME280;62853;46.166;3.640;2024-01-07T11:33:38;102230.53;;;5.06;100.00
74103;BME280;62853;46.166;3.640;2024-01-07T11:36:07;102235.75;;;5.07;100.00
74103;BME280;62853;46.166;3.640;2024-01-07T11:38:34;102226.19;;;5.08;100.00
74103;BME280;62853;46.166;3.640;2024-01-07T11:41:00;102228.75;;;5.09;100.00
74103;BME280;62853;46.166;3.640;2024-01-07T11:43:28;102226.19;;;5.08;100.00
74103;BME280;62853;46.166;3.640;2024-01-07T11:45:54;102233.13;;;5.09;100.00
74103;BME280;62853;46.166;3.640;2024-01-07T11:48:20;102229.63;;;5.11;100.00
74103;BME280;62853;46.166;3.640;2024-01-07T11:50:45;102229.63;;;5.13;100.00
74103;BME280;62853;46.166;3.640;2024-01-07T11:53:12;102227.00;;;5.13;100.00
74103;BME280;62853;46.166;3.640;2024-01-07T11:55:37;102227.84;;;5.13;100.00
74103;BME280;62853;46.166;3.640;2024-01-07T11:58:03;102225.25;;;5.12;100.00
74103;BME280;62853;46.166;3.640;2024-01-07T12:00:32;102226.09;;;5.12;100.00
74103;BME280;62853;46.166;3.640;2024-01-07T12:03:02;102225.25;;;5.12;100.00
74103;BME280;62853;46.166;3.640;2024-01-07T12:05:29;102217.41;;;5.13;100.00
74103;BME280;62853;46.166;3.640;2024-01-07T12:07:55;102218.25;;;5.14;100.00
74103;BME280;62853;46.166;3.640;2024-01-07T12:10:20;102217.38;;;5.16;100.00
74103;BME280;62853;46.166;3.640;2024-01-07T12:12:47;102223.44;;;5.18;100.00
74103;BME280;62853;46.166;3.640;2024-01-07T12:15:13;102225.19;;;5.19;100.00
74103;BME280;62853;46.166;3.640;2024-01-07T12:17:39;102225.19;;;5.19;100.00
74103;BME280;62853;46.166;3.640;2024-01-07T12:20:05;102226.91;;;5.20;100.00
74103;BME280;62853;46.166;3.640;2024-01-07T12:22:32;102237.31;;;5.24;100.00
74103;BME280;62853;46.166;3.640;2024-01-07T12:25:05;102234.69;;;5.25;100.00
74103;BME280;62853;46.166;3.640;2024-01-07T12:27:32;102232.06;;;5.27;100.00
74103;BME280;62853;46.166;3.640;2024-01-07T12:29:58;102244.28;;;5.26;100.00
74103;BME280;62853;46.166;3.640;2024-01-07T12:32:28;102241.66;;;5.26;100.00
74103;BME280;62853;46.166;3.640;2024-01-07T12:34:53;102242.53;;;5.27;100.00
74103;BME280;62853;46.166;3.640;2024-01-07T12:37:18;102246.00;;;5.27;100.00
74103;BME280;62853;46.166;3.640;2024-01-07T12:39:44;102254.69;;;5.29;100.00
74103;BME280;62853;46.166;3.640;2024-01-07T12:42:09;102240.75;;;5.30;100.00
74103;BME280;62853;46.166;3.640;2024-01-07T12:44:38;102253.81;;;5.30;100.00
74103;BME280;62853;46.166;3.640;2024-01-07T12:47:03;102243.34;;;5.30;100.00
74103;BME280;62853;46.166;3.640;2024-01-07T12:49:29;102257.28;;;5.31;100.00